Terminal Aerodrome Forecast
Issued by NWS

Home | Current Version | Previous Version | Text Only | Print | Product List | Glossary Off
Versions: 1 2 3 4 5 6 7 8 9 10 11 12 13

000
FTUS42 KMHX 281700
TAFOAJ
TAF
KOAJ 281733Z 2818/2918 21008KT P6SM SCT040 BKN120
     FM290000 20003KT P6SM VCSH OVC020
     FM290300 00000KT 4SM BR VCSH OVC008
     FM290600 03003KT 2SM -RA BR OVC004
      AMD LTD TO CLD VIS AND WIND=

USA.gov is the U.S. government's official web portal to all federal, state and local government web resources and services.